Latest Weather Observations for Archerfield

IDQ60901

Issued at 10:21 pm EST Monday 8 February 2016 (issued every 10 minutes, with the page automatically refreshed every 10 minutes)

About weather observations | Map of Brisbane area stations | Latest observations for Brisbane area | Other Formats
Station Details ID: 040211 Name: ARCHERFIELD AIRPORT Lat: -27.57 Lon: 153.01 Height: 12.5 m
Data from the previous 72 hours. | See also: Recent months at Archerfield
Date/Time
EST
Tmp

°C
App
Tmp
°C
Dew
Point
°C
Rel
Hum
%
Delta-T

°C
Wind Press
QNH
hPa
Press
MSL
hPa
Rain
since
9 am
mm
Dir
 
Spd
km/h
Gust
km/h
Spd
kts
Gust
kts
08/10:00pm 23.7 23.4 16.5 64 4.4 SSE 13 19 7 10 1015.5 1015.4 0.0
08/09:30pm 24.2 22.8 16.5 62 4.7 SE 19 28 10 15 1015.6 1015.5 0.0
08/09:00pm 24.0 22.8 17.0 65 4.3 SE 19 24 10 13 1015.6 1015.5 0.0
08/08:30pm 24.0 22.9 17.3 66 4.2 ESE 19 28 10 15 1015.1 1015.0 0.0
08/08:00pm 24.5 23.0 17.7 66 4.2 ESE 22 30 12 16 1014.8 1014.7 0.0
08/07:30pm 24.9 23.6 18.1 66 4.3 ESE 22 33 12 18 1014.4 1014.3 0.0
08/07:00pm 25.3 23.6 18.2 64 4.5 ESE 24 32 13 17 1014.0 1013.9 0.0
08/06:30pm 25.8 24.5 18.2 63 4.8 ESE 22 30 12 16 1013.5 1013.4 0.0
08/06:00pm 26.8 25.2 18.4 60 5.3 ESE 24 32 13 17 1012.9 1012.8 0.0
08/05:30pm 26.8 25.1 18.1 59 5.5 ESE 24 33 13 18 1012.5 1012.4 0.0
08/05:00pm 27.5 25.4 17.1 53 6.5 ESE 24 33 13 18 1012.3 1012.2 0.0
08/04:30pm 28.5 26.0 17.1 50 7.2 ESE 26 33 14 18 1012.4 1012.3 0.0
08/04:00pm 29.6 28.1 16.8 46 8.0 ESE 20 30 11 16 1012.3 1012.2 0.0
08/03:30pm 29.0 27.2 15.5 44 8.3 SE 19 28 10 15 1012.4 1012.3 0.0
08/03:00pm 30.7 29.2 15.2 39 9.5 SE 17 28 9 15 1012.5 1012.4 0.0
08/02:30pm 29.1 27.1 15.6 44 8.3 SE 20 28 11 15 1012.8 1012.7 0.0
08/02:00pm 28.8 27.5 16.7 48 7.6 SE 19 24 10 13 1013.1 1013.0 0.0
08/01:30pm 29.6 28.3 16.8 46 8.0 SSW 19 26 10 14 1013.3 1013.2 0.0
08/01:00pm 28.6 26.6 15.5 45 8.0 SE 20 26 11 14 1013.5 1013.4 0.0
08/12:30pm 28.1 26.6 16.7 50 7.1 SE 20 28 11 15 1014.0 1013.9 0.0
08/12:00pm 28.7 27.7 16.6 48 7.5 SSW 17 26 9 14 1014.1 1014.0 0.0
08/11:30am 28.5 27.8 16.4 48 7.5 S 15 30 8 16 1014.5 1014.4 0.0
08/11:00am 28.2 26.9 16.8 50 7.1 S 19 28 10 15 1015.0 1014.9 0.0
08/10:30am 28.2 27.1 17.4 52 6.8 SSW 19 24 10 13 1015.3 1015.2 0.0
08/10:00am 27.3 26.0 16.9 53 6.5 S 19 30 10 16 1015.7 1015.6 0.0
08/09:30am 26.7 25.9 16.0 52 6.6 S 15 24 8 13 1015.8 1015.7 0.0
08/09:00am 26.1 25.9 16.6 55 5.9 SSW 13 19 7 10 1015.9 1015.8 0.2
08/08:30am 25.2 24.2 16.6 59 5.3 S 17 22 9 12 1015.9 1015.8 0.2
08/08:00am 24.1 22.8 16.9 64 4.4 S 19 22 10 12 1015.9 1015.8 0.2
08/07:30am 23.0 21.7 16.8 68 3.8 SSW 19 24 10 13 1015.8 1015.7 0.2
08/07:00am 21.8 22.7 17.6 77 2.6 SSW 9 13 5 7 1015.7 1015.6 0.2
08/06:30am 19.6 22.0 17.0 85 1.6 CALM 0 0 0 0 1015.4 1015.3 0.2
08/06:00am 18.3 19.7 16.3 88 1.2 W 4 6 2 3 1015.0 1014.9 0.2
08/05:30am 17.2 19.0 15.4 89 1.1 CALM 0 0 0 0 1014.6 1014.5 0.2
08/05:00am 18.4 20.6 16.4 88 1.2 CALM 0 0 0 0 1014.4 1014.3 0.2
08/04:30am 17.9 19.8 15.7 87 1.3 CALM 0 0 0 0 1014.5 1014.4 0.2
08/04:00am 17.6 18.8 15.8 89 1.1 WNW 4 7 2 4 1014.4 1014.3 0.2
08/03:30am 18.6 19.5 16.0 85 1.5 S 6 7 3 4 1014.4 1014.3 0.2
08/03:00am 18.6 19.5 16.2 86 1.4 SSW 6 7 3 4 1014.5 1014.4 0.2
08/02:30am 19.2 19.5 16.1 82 1.8 S 9 9 5 5 1014.5 1014.4 0.2
08/02:00am 19.5 20.4 16.0 80 2.1 SSW 6 7 3 4 1014.8 1014.7 0.2
08/01:30am 19.4 20.6 15.9 80 2.1 SSW 4 7 2 4 1014.9 1014.8 0.2
08/01:00am 20.0 19.9 16.0 78 2.4 S 11 13 6 7 1014.7 1014.6 0.2
08/12:30am 20.2 20.1 16.0 77 2.5 S 11 13 6 7 1015.2 1015.1 0.2
08/12:00am 20.6 21.3 16.0 75 2.8 SSW 7 7 4 4 1015.8 1015.7 0.2
 
Date/Time
EST
Tmp

°C
App
Tmp
°C
Dew
Point
°C
Rel
Hum
%
Delta-T

°C
Wind Press
QNH
hPa
Press
MSL
hPa
Rain
since
9 am
mm
Dir
 
Spd
km/h
Gust
km/h
Spd
kts
Gust
kts
07/11:30pm 20.9 20.9 16.3 75 2.8 S 11 13 6 7 1015.5 1015.4 0.2
07/11:00pm 21.3 21.6 16.0 72 3.2 S 9 11 5 6 1015.6 1015.5 0.2
07/10:30pm 21.7 22.1 16.4 72 3.2 S 9 11 5 6 1015.6 1015.5 0.2
07/10:00pm 21.5 22.0 16.5 73 3.0 S 9 13 5 7 1015.6 1015.5 0.2
07/09:30pm 22.4 23.1 16.2 68 3.8 SSE 7 9 4 5 1015.5 1015.4 0.2
07/09:00pm 22.8 24.1 16.1 66 4.1 SSE 4 11 2 6 1015.3 1015.2 0.2
07/08:30pm 23.1 23.7 15.9 64 4.3 S 7 11 4 6 1015.0 1014.9 0.2
07/08:00pm 23.5 23.3 15.8 62 4.6 SE 11 15 6 8 1014.7 1014.6 0.2
07/07:30pm 24.5 24.0 16.0 59 5.2 SSE 13 17 7 9 1014.8 1014.7 0.2
07/07:00pm 24.9 24.2 16.3 59 5.3 SE 15 20 8 11 1014.1 1014.0 0.2
07/06:30pm 25.1 24.9 16.8 60 5.1 SE 13 19 7 10 1013.8 1013.7 0.2
07/06:00pm 25.2 24.2 16.6 59 5.3 SE 17 22 9 12 1013.3 1013.2 0.2
07/05:30pm 25.1 24.3 17.1 61 5.0 SE 17 24 9 13 1013.2 1013.1 0.2
07/05:00pm 23.6 21.4 17.8 70 3.6 SSE 26 35 14 19 1013.2 1013.1 0.2
07/04:30pm 26.1 24.8 16.9 57 5.7 SSE 19 28 10 15 1012.7 1012.6 0.2
07/04:00pm 26.6 25.5 17.4 57 5.8 SSE 19 24 10 13 1012.3 1012.2 0.2
07/03:30pm 27.3 26.4 18.3 58 5.7 SE 20 26 11 14 1012.4 1012.3 0.2
07/03:00pm 26.9 26.1 17.9 57 5.7 SE 19 24 10 13 1012.5 1012.4 0.2
07/02:30pm 26.6 24.9 18.2 60 5.3 SSE 24 32 13 17 1012.7 1012.6 0.2
07/02:00pm 27.2 25.4 17.9 56 5.9 ESE 24 35 13 19 1012.8 1012.7 0.2
07/01:30pm 26.9 26.2 18.2 59 5.5 SE 19 32 10 17 1012.9 1012.8 0.2
07/01:00pm 26.3 26.1 18.4 61 5.0 S 17 24 9 13 1012.9 1012.8 0.2
07/12:30pm 26.6 25.8 18.5 61 5.2 SSW 20 28 11 15 1013.0 1012.9 0.2
07/12:00pm 26.6 26.1 18.7 62 5.0 SSE 19 26 10 14 1013.0 1012.9 0.2
07/11:30am 26.6 25.5 18.7 62 5.0 S 22 32 12 17 1013.4 1013.3 0.2
07/11:00am 27.0 26.7 19.1 62 5.1 S 19 26 10 14 1013.4 1013.3 0.0
07/10:30am 24.7 23.6 17.7 65 4.4 SSW 20 28 11 15 1013.6 1013.5 0.0
07/10:00am 24.6 22.4 17.8 66 4.3 SSW 26 33 14 18 1013.8 1013.7 0.0
07/09:30am 26.1 26.3 18.5 63 4.8 SSE 15 22 8 12 1013.7 1013.6 0.0
07/09:00am 25.6 25.9 18.8 66 4.3 S 15 19 8 10 1013.7 1013.6 1.2
07/08:30am 25.2 25.9 19.6 71 3.6 S 15 22 8 12 1013.6 1013.5 1.2
07/08:00am 23.9 23.6 18.3 71 3.5 SSW 17 22 9 12 1013.6 1013.5 1.2
07/07:30am 23.6 24.0 18.9 75 3.0 SSW 15 20 8 11 1013.3 1013.2 1.2
07/07:00am 23.1 23.9 19.1 78 2.5 SSW 13 15 7 8 1013.3 1013.2 1.2
07/06:30am 21.9 22.9 18.7 82 2.0 SSW 11 13 6 7 1013.2 1013.1 1.2
07/06:00am 21.2 22.3 18.8 86 1.5 SSW 11 15 6 8 1012.9 1012.8 1.2
07/05:30am 21.1 22.2 18.9 87 1.4 SSW 11 17 6 9 1012.5 1012.4 1.2
07/05:00am 21.3 22.5 19.0 87 1.5 SSW 11 17 6 9 1012.5 1012.4 1.2
07/04:30am 21.5 22.4 19.2 87 1.5 SSW 13 19 7 10 1012.1 1012.0 1.2
07/04:00am 21.4 22.5 19.7 90 1.1 SSW 13 15 7 8 1011.8 1011.7 1.2
07/03:30am 21.5 24.0 19.8 90 1.1 SSW 6 9 3 5 1011.9 1011.8 1.2
07/03:00am 21.6 23.6 19.9 90 1.1 SSW 9 13 5 7 1011.7 1011.6 1.2
07/02:30am 21.8 23.0 19.9 89 1.2 SSW 13 17 7 9 1011.7 1011.6 1.2
07/02:00am 22.2 24.1 19.7 86 1.6 SW 9 13 5 7 1011.6 1011.5 1.2
07/01:30am 22.7 25.2 20.2 86 1.6 S 7 9 4 5 1011.5 1011.4 1.2
07/01:00am 22.6 25.5 19.9 85 1.7 SSE 4 7 2 4 1011.4 1011.3 1.2
07/12:30am 22.5 24.9 20.0 86 1.6 SSE 7 11 4 6 1011.7 1011.6 1.2
07/12:00am 22.6 24.3 20.1 86 1.6 SSE 11 15 6 8 1012.1 1012.0 1.2
 
Date/Time
EST
Tmp

°C
App
Tmp
°C
Dew
Point
°C
Rel
Hum
%
Delta-T

°C
Wind Press
QNH
hPa
Press
MSL
hPa
Rain
since
9 am
mm
Dir
 
Spd
km/h
Gust
km/h
Spd
kts
Gust
kts
06/11:30pm 22.7 24.5 20.4 87 1.5 SSE 11 17 6 9 1012.6 1012.5 1.2
06/11:00pm 23.1 25.2 20.2 84 1.9 SSE 9 13 5 7 1012.7 1012.6 1.0
06/10:30pm 23.1 25.7 20.4 85 1.8 SSE 7 13 4 7 1013.2 1013.1 1.0
06/10:00pm 23.2 25.3 20.2 83 1.9 S 9 19 5 10 1013.4 1013.3 1.0
06/09:30pm 22.9 25.7 20.4 86 1.6 SSE 6 7 3 4 1013.4 1013.3 1.0
06/09:00pm 23.0 25.2 20.5 86 1.6 SSE 9 13 5 7 1012.9 1012.8 1.0
06/08:30pm 22.9 24.3 20.4 86 1.6 SSE 13 20 7 11 1012.8 1012.7 1.0
06/08:00pm 22.8 24.7 20.5 87 1.5 SE 11 13 6 7 1012.4 1012.3 1.0
06/07:30pm 22.8 22.6 20.5 87 1.5 SE 22 35 12 19 1011.9 1011.8 1.0
06/07:00pm 23.5 24.4 20.8 85 1.8 SE 17 22 9 12 1011.6 1011.5 0.8
06/06:30pm 23.6 24.4 20.7 84 1.9 SSE 17 24 9 13 1011.2 1011.1 0.8
06/06:00pm 23.6 24.5 20.9 85 1.8 SE 17 28 9 15 1010.8 1010.7 0.6
06/05:30pm 23.4 21.9 20.3 83 2.0 SE 28 43 15 23 1010.6 1010.5 0.6
06/05:00pm 25.4 24.8 20.4 74 3.3 SE 24 37 13 20 1009.8 1009.7 0.6
06/04:30pm 24.3 24.5 21.4 84 1.9 ESE 22 35 12 19 1009.7 1009.6 0.6
06/04:07pm 25.6 23.9 19.9 70 3.7 SE 28 48 15 26 1009.5 1009.4 0.4
06/04:00pm 26.7 25.9 20.1 67 4.3 SE 24 33 13 18 1009.4 1009.3 0.4
06/03:30pm 26.2 26.4 21.4 75 3.2 SE 22 30 12 16 1009.4 1009.3 0.4
06/03:04pm 26.7 25.1 20.1 67 4.3 ESE 28 48 15 26 1009.4 1009.3 0.2
06/03:00pm 27.8 26.2 20.1 63 5.0 ESE 28 39 15 21 1009.3 1009.2 0.2
06/02:30pm 27.4 25.0 20.0 64 4.8 ESE 32 41 17 22 1009.5 1009.4 0.2
06/02:06pm 27.5 25.2 20.1 64 4.8 SE 32 50 17 27 1009.6 1009.5 0.2
06/02:00pm 28.7 26.2 20.2 60 5.6 SE 33 43 18 23 1009.5 1009.4 0.2
06/01:39pm 28.1 25.9 20.4 63 5.1 ESE 32 50 17 27 1009.8 1009.7 0.2
06/01:30pm 27.9 25.3 19.9 61 5.2 ESE 33 50 18 27 1009.7 1009.6 0.2
06/01:00pm 29.8 28.4 20.4 57 6.2 ESE 28 37 15 20 1009.9 1009.8 0.2
06/12:30pm 28.3 26.5 20.3 62 5.3 SE 30 43 16 23 1010.0 1009.9 0.2
06/12:00pm 27.2 27.5 20.8 68 4.2 SE 20 30 11 16 1010.5 1010.4 0.2
06/11:49am 25.9 24.2 21.3 76 3.0 SE 32 50 17 27 1010.8 1010.7 0.2
06/11:30am 29.2 27.8 20.4 59 5.8 ESE 28 41 15 22 1010.7 1010.6 0.2
06/11:00am 27.9 27.2 21.0 66 4.6 SE 26 37 14 20 1011.1 1011.0 0.2
06/10:30am 25.4 24.4 20.4 74 3.3 SE 26 37 14 20 1011.3 1011.2 0.2
06/10:19am 24.5 22.6 21.0 81 2.3 SE 32 50 17 27 1011.4 1011.3 0.2
06/10:00am 26.6 26.8 21.4 73 3.5 SE 22 33 12 18 1011.4 1011.3 0.2
06/09:30am 25.4 26.1 21.5 79 2.6 SE 20 30 11 16 1011.6 1011.5 0.2
06/09:00am 24.3 24.5 20.6 80 2.4 SE 20 33 11 18 1011.6 1011.5 3.0
06/08:30am 24.2 25.5 20.9 82 2.2 SSE 15 19 8 10 1011.5 1011.4 3.0
06/08:00am 23.6 24.6 20.3 82 2.1 SSE 15 24 8 13 1011.3 1011.2 3.0
06/07:30am 22.7 24.5 20.4 87 1.5 SSE 11 17 6 9 1011.3 1011.2 3.0
06/07:00am 22.4 24.5 20.1 87 1.5 SE 9 13 5 7 1011.0 1010.9 3.0
06/06:30am 22.4 23.2 19.8 85 1.7 SSE 15 22 8 12 1010.9 1010.8 2.8
06/06:00am 22.7 22.9 19.3 81 2.2 SSE 17 22 9 12 1010.4 1010.3 2.6
06/05:30am 22.6 23.9 19.2 81 2.2 S 11 17 6 9 1009.8 1009.7 2.6
06/05:00am 22.5 21.7 19.3 82 2.0 SSE 22 32 12 17 1009.3 1009.2 2.6
06/04:30am 23.2 23.2 18.9 77 2.7 SSE 17 24 9 13 1009.1 1009.0 2.6
06/04:00am 23.0 22.5 18.7 77 2.7 SSE 19 30 10 16 1008.9 1008.8 2.6
06/03:30am 23.0 22.9 18.7 77 2.7 SE 17 22 9 12 1008.9 1008.8 2.6
06/03:00am 23.2 23.2 18.9 77 2.7 SSE 17 26 9 14 1008.7 1008.6 2.6
06/02:30am 22.5 24.2 18.5 78 2.5 SW 7 19 4 10 1008.8 1008.7 2.6
06/02:00am 22.4 24.3 19.0 81 2.2 S 7 11 4 6 1009.1 1009.0 2.6
06/01:30am 22.0 23.8 18.4 80 2.3 SSW 6 7 3 4 1009.3 1009.2 2.6
06/01:00am 22.0 24.1 19.0 83 1.9 SW 6 7 3 4 1009.4 1009.3 2.6
06/12:30am 22.1 24.1 18.7 81 2.1 SSE 6 7 3 4 1009.6 1009.5 2.6
06/12:00am 22.6 25.7 18.6 78 2.5 CALM 0 6 0 3 1009.8 1009.7 2.6
 
Date/Time
EST
Tmp

°C
App
Tmp
°C
Dew
Point
°C
Rel
Hum
%
Delta-T

°C
Wind Press
QNH
hPa
Press
MSL
hPa
Rain
since
9 am
mm
Dir
 
Spd
km/h
Gust
km/h
Spd
kts
Gust
kts
05/11:30pm 22.7 25.0 18.5 77 2.6 SSE 4 6 2 3 1010.3 1010.2 2.6
05/11:00pm 23.1 24.9 18.4 75 3.0 S 6 7 3 4 1010.8 1010.7 2.6
05/10:30pm 23.6 24.5 18.5 73 3.2 S 11 15 6 8 1010.9 1010.8 2.6

Latest Capital City Observations: Canberra | Sydney | Melbourne | Brisbane | Adelaide | Perth | Hobart | Darwin

Other Formats:

Comma delimited format used in spreadsheet applications
http://www.bom.gov.au/fwo/IDQ60901/IDQ60901.94575.axf

JavaScript Object Notation format (JSON) in row-major order
http://www.bom.gov.au/fwo/IDQ60901/IDQ60901.94575.json